createdAt,value
2023-03-30T00:00:42.283Z,985.7
2023-03-30T00:03:08.393Z,985.7
2023-03-30T00:05:34.520Z,985.9
2023-03-30T00:07:59.593Z,985.9
2023-03-30T00:10:25.690Z,986
2023-03-30T00:12:51.797Z,985.8
2023-03-30T00:15:17.874Z,985.6
2023-03-30T00:17:43.975Z,985.7
2023-03-30T00:20:10.081Z,985.8
2023-03-30T00:22:36.182Z,985.7
2023-03-30T00:25:02.264Z,985.7
2023-03-30T00:27:28.405Z,985.6
2023-03-30T00:29:54.499Z,985.6
2023-03-30T00:32:20.596Z,985.6
2023-03-30T00:34:46.693Z,985.7
2023-03-30T00:37:12.751Z,985.7
2023-03-30T00:39:37.907Z,985.6
2023-03-30T00:42:03.970Z,985.5
2023-03-30T00:44:30.086Z,985.5
2023-03-30T00:46:56.185Z,985.4
2023-03-30T00:49:22.266Z,985.4
2023-03-30T00:51:48.351Z,985.3
2023-03-30T00:54:14.494Z,985.4
2023-03-30T00:56:40.551Z,985.4
2023-03-30T00:59:06.617Z,985.2
2023-03-30T01:01:32.731Z,985.3
2023-03-30T01:03:58.831Z,985.2
2023-03-30T01:06:24.929Z,985.1
2023-03-30T01:08:51.014Z,985.1
2023-03-30T01:11:16.130Z,985
2023-03-30T01:13:42.198Z,985
2023-03-30T01:16:08.287Z,984.9
2023-03-30T01:18:34.407Z,984.9
2023-03-30T01:21:00.493Z,984.9
2023-03-30T01:23:26.606Z,984.8
2023-03-30T01:25:52.677Z,984.8
2023-03-30T01:28:18.780Z,984.8
2023-03-30T01:30:44.896Z,984.8
2023-03-30T01:33:10.974Z,984.7
2023-03-30T01:35:37.061Z,984.8
2023-03-30T01:38:03.175Z,984.8
2023-03-30T01:40:29.262Z,984.9
2023-03-30T01:42:54.381Z,985
2023-03-30T01:45:20.476Z,985.2
2023-03-30T01:47:46.568Z,985.3
2023-03-30T01:50:12.657Z,985.4
2023-03-30T01:52:38.775Z,985.4
2023-03-30T01:55:04.835Z,985.3
2023-03-30T01:57:30.954Z,985.1
2023-03-30T01:59:57.034Z,985.1
2023-03-30T02:02:23.201Z,985.1
2023-03-30T02:04:49.214Z,985.2
2023-03-30T02:07:15.353Z,985.2
2023-03-30T02:09:41.407Z,985.2
2023-03-30T02:12:07.500Z,985.2
2023-03-30T02:14:32.629Z,985.4
2023-03-30T02:16:58.738Z,985.4
2023-03-30T02:19:24.813Z,985.4
2023-03-30T02:21:50.906Z,985.3
2023-03-30T02:24:17.011Z,985.1
2023-03-30T02:26:43.107Z,985.2
2023-03-30T02:29:09.201Z,985.2
2023-03-30T02:31:35.289Z,985.2
2023-03-30T02:34:01.396Z,985.2
2023-03-30T02:36:27.493Z,985.2
2023-03-30T02:38:53.589Z,985.1
2023-03-30T02:41:19.680Z,985.2
2023-03-30T02:43:45.771Z,985.2
2023-03-30T02:46:10.910Z,985.2
2023-03-30T02:48:36.975Z,985.2
2023-03-30T02:51:03.078Z,985.3
2023-03-30T02:53:29.166Z,985.2
2023-03-30T02:55:55.266Z,985.1
2023-03-30T02:58:21.362Z,985.2
2023-03-30T03:00:47.456Z,985.2
2023-03-30T03:03:13.579Z,985.2
2023-03-30T03:05:39.649Z,985.2
2023-03-30T03:08:05.751Z,985.2
2023-03-30T03:10:31.846Z,985.2
2023-03-30T03:12:57.945Z,985.1
2023-03-30T03:15:24.046Z,985.1
2023-03-30T03:17:49.157Z,985.1
2023-03-30T03:20:15.238Z,985.1
2023-03-30T03:22:41.340Z,985.1
2023-03-30T03:25:07.447Z,984.9
2023-03-30T03:27:33.555Z,984.7
2023-03-30T03:29:59.630Z,984.6
2023-03-30T03:32:25.721Z,984.8
2023-03-30T03:34:51.849Z,984.8
2023-03-30T03:37:17.914Z,984.7
2023-03-30T03:39:44.032Z,984.6
2023-03-30T03:42:10.102Z,984.7
2023-03-30T03:44:36.200Z,984.6
2023-03-30T03:47:02.354Z,984.6
2023-03-30T03:49:27.416Z,984.5
2023-03-30T03:51:53.501Z,984.4
2023-03-30T03:54:19.579Z,984.4
2023-03-30T03:56:45.691Z,984.4
2023-03-30T03:59:11.873Z,984.4
2023-03-30T04:01:37.883Z,984.4
2023-03-30T04:04:04.054Z,984.4
2023-03-30T04:06:30.049Z,984.4
2023-03-30T04:08:56.162Z,984.4
2023-03-30T04:11:22.269Z,984.4
2023-03-30T04:13:48.338Z,984.2
2023-03-30T04:16:14.503Z,984.2
2023-03-30T04:18:40.557Z,984.2
2023-03-30T04:21:05.672Z,984
2023-03-30T04:23:31.758Z,984.1
2023-03-30T04:25:57.846Z,984.1
2023-03-30T04:28:23.942Z,984
2023-03-30T04:30:50.051Z,984
2023-03-30T04:33:16.158Z,983.9
2023-03-30T04:35:42.252Z,983.7
2023-03-30T04:38:08.555Z,983.6
2023-03-30T04:40:34.439Z,983.6
2023-03-30T04:43:00.514Z,983.7
2023-03-30T04:45:26.619Z,983.6
2023-03-30T04:47:52.731Z,983.5
2023-03-30T04:50:18.836Z,983.6
2023-03-30T04:52:43.912Z,983.5
2023-03-30T04:55:10.034Z,983.5
2023-03-30T04:57:36.110Z,983.4
2023-03-30T05:00:02.202Z,983.4
2023-03-30T05:02:28.314Z,983.3
2023-03-30T05:04:54.401Z,983.4
2023-03-30T05:07:20.488Z,983.3
2023-03-30T05:09:46.572Z,983.3
2023-03-30T05:12:12.692Z,983.3
2023-03-30T05:14:38.783Z,983.3
2023-03-30T05:17:04.887Z,983.4
2023-03-30T05:19:30.958Z,983.4
2023-03-30T05:21:57.045Z,983.3
2023-03-30T05:24:22.184Z,983.2
2023-03-30T05:26:48.261Z,983.1
2023-03-30T05:29:14.371Z,983.1
2023-03-30T05:31:40.468Z,983.1
2023-03-30T05:34:06.541Z,983.2
2023-03-30T05:36:32.662Z,983.1
2023-03-30T05:38:58.755Z,983.1
2023-03-30T05:41:24.823Z,983.2
2023-03-30T05:43:50.952Z,983.2
2023-03-30T05:46:17.048Z,983.1
2023-03-30T05:48:43.121Z,983.1
2023-03-30T05:51:09.231Z,983.1
2023-03-30T05:53:35.347Z,983.1
2023-03-30T05:56:00.426Z,983.1
2023-03-30T05:58:26.529Z,983.1
2023-03-30T06:00:52.681Z,983
2023-03-30T06:03:18.711Z,982.9
2023-03-30T06:05:44.829Z,983
2023-03-30T06:08:10.902Z,983.2
2023-03-30T06:10:36.999Z,983
2023-03-30T06:13:03.107Z,983.1
2023-03-30T06:15:29.201Z,983.3
2023-03-30T06:17:55.284Z,983.3
2023-03-30T06:22:47.470Z,983.4
2023-03-30T06:25:13.576Z,983.5
2023-03-30T06:27:38.715Z,983.6
2023-03-30T06:30:04.793Z,983.7
2023-03-30T06:32:30.885Z,983.7
2023-03-30T06:34:56.986Z,983.7
2023-03-30T06:37:23.077Z,983.7
2023-03-30T06:39:49.173Z,983.8
2023-03-30T06:42:14.278Z,983.7
2023-03-30T06:44:40.387Z,983.7
2023-03-30T06:47:06.474Z,983.8
2023-03-30T06:49:32.560Z,983.8
2023-03-30T06:51:58.649Z,983.9
2023-03-30T06:54:24.800Z,983.8
2023-03-30T06:56:50.886Z,983.9
2023-03-30T06:59:16.956Z,984
2023-03-30T07:01:43.061Z,984.1
2023-03-30T07:04:09.157Z,984.1
2023-03-30T07:06:35.230Z,984.3
2023-03-30T07:09:01.331Z,984.6
2023-03-30T07:11:27.491Z,984.5
2023-03-30T07:13:52.553Z,984.6
2023-03-30T07:16:18.637Z,984.7
2023-03-30T07:18:44.807Z,984.7
2023-03-30T07:21:10.835Z,984.7
2023-03-30T07:23:36.946Z,984.9
2023-03-30T07:26:03.003Z,985
2023-03-30T07:28:29.111Z,985
2023-03-30T07:30:55.189Z,985.1
2023-03-30T07:33:21.296Z,985.2
2023-03-30T07:35:47.394Z,985.2
2023-03-30T07:38:13.480Z,985.3
2023-03-30T07:40:39.573Z,985.4
2023-03-30T07:43:05.746Z,985.3
2023-03-30T07:45:30.783Z,985.4
2023-03-30T07:47:56.888Z,985.4
2023-03-30T07:50:22.966Z,985.5
2023-03-30T07:52:49.089Z,985.4
2023-03-30T07:55:15.172Z,985.4
2023-03-30T07:57:41.291Z,985.3
2023-03-30T08:00:07.383Z,985
2023-03-30T08:02:33.456Z,985.1
2023-03-30T08:04:59.583Z,985.2
2023-03-30T08:07:25.713Z,985.2
2023-03-30T08:09:51.791Z,985.1
2023-03-30T08:12:17.883Z,985.1
2023-03-30T08:14:44.000Z,985.1
2023-03-30T08:17:09.065Z,985.1
2023-03-30T08:19:35.166Z,985
2023-03-30T08:22:01.294Z,985.2
2023-03-30T08:24:27.354Z,985.4
2023-03-30T08:26:53.444Z,985.6
2023-03-30T08:29:19.562Z,985.8
2023-03-30T08:31:45.611Z,986
2023-03-30T08:34:11.710Z,986.1
2023-03-30T08:36:37.830Z,986.1
2023-03-30T08:39:03.916Z,986
2023-03-30T08:41:29.980Z,986
2023-03-30T08:43:56.084Z,986
2023-03-30T08:46:22.177Z,985.8
2023-03-30T08:48:47.285Z,985.9
2023-03-30T08:51:13.395Z,985.9
2023-03-30T08:53:39.485Z,985.9
2023-03-30T08:56:05.587Z,985.9
2023-03-30T08:58:31.672Z,985.8
2023-03-30T09:00:57.768Z,985.8
2023-03-30T09:03:23.853Z,985.7
2023-03-30T09:05:49.945Z,985.6
2023-03-30T09:08:16.043Z,985.6
2023-03-30T09:10:42.217Z,985.6
2023-03-30T09:13:08.233Z,985.7
2023-03-30T09:15:34.340Z,985.5
2023-03-30T09:18:00.426Z,985.5
2023-03-30T09:20:25.546Z,985.4
2023-03-30T09:22:51.672Z,985.4
2023-03-30T09:25:17.739Z,985.3
2023-03-30T09:27:43.834Z,985.3
2023-03-30T09:30:09.931Z,985.2
2023-03-30T09:32:36.027Z,985.2
2023-03-30T09:35:02.125Z,985.3
2023-03-30T09:37:28.220Z,985.3
2023-03-30T09:39:54.322Z,985.1
2023-03-30T09:42:20.404Z,985.1
2023-03-30T09:44:46.504Z,985.2
2023-03-30T09:47:12.585Z,985.3
2023-03-30T09:49:38.690Z,985.2
2023-03-30T09:52:03.808Z,985.4
2023-03-30T09:54:29.894Z,985.4
2023-03-30T09:56:55.989Z,985.5
2023-03-30T09:59:22.139Z,985.5
2023-03-30T10:01:48.216Z,985.6
2023-03-30T10:04:14.345Z,985.5
2023-03-30T10:06:40.426Z,985.5
2023-03-30T10:09:06.509Z,985.5
2023-03-30T10:13:58.726Z,985.5
2023-03-30T10:16:24.776Z,985.5
2023-03-30T10:18:51.019Z,985.6
2023-03-30T10:21:17.015Z,985.6
2023-03-30T10:23:42.082Z,985.6
2023-03-30T10:26:08.169Z,985.5
2023-03-30T10:28:34.255Z,985.5
2023-03-30T10:31:00.468Z,985.5
2023-03-30T10:33:26.444Z,985.5
2023-03-30T10:35:52.538Z,985.5
2023-03-30T10:38:18.647Z,985.4
2023-03-30T10:40:44.741Z,985.4
2023-03-30T10:43:10.845Z,985.4
2023-03-30T10:45:36.918Z,985.4
2023-03-30T10:48:03.061Z,985.4
2023-03-30T10:50:29.112Z,985.4
2023-03-30T10:52:55.206Z,985.3
2023-03-30T10:55:20.318Z,985.2
2023-03-30T10:57:46.421Z,985.3
2023-03-30T11:00:12.540Z,985.3
2023-03-30T11:02:38.626Z,985.2
2023-03-30T11:05:04.711Z,985.3
2023-03-30T11:07:30.822Z,985.2
2023-03-30T11:09:56.914Z,985.2
2023-03-30T11:12:23.036Z,985.2
2023-03-30T11:14:49.074Z,985
2023-03-30T11:17:15.181Z,984.9
2023-03-30T11:19:41.289Z,985
2023-03-30T11:22:07.390Z,985
2023-03-30T11:24:33.469Z,985.1
2023-03-30T11:26:58.577Z,985.2
2023-03-30T11:29:24.746Z,985.1
2023-03-30T11:31:50.785Z,985.2
2023-03-30T11:34:16.867Z,985.3
2023-03-30T11:36:42.963Z,985.2
2023-03-30T11:39:09.056Z,985.2
2023-03-30T11:41:35.138Z,985.3
2023-03-30T11:44:01.255Z,985.3
2023-03-30T11:46:27.351Z,985.2
2023-03-30T11:48:53.449Z,985.4
2023-03-30T11:51:19.666Z,985.4
2023-03-30T11:56:11.746Z,985.3
2023-03-30T11:58:36.846Z,985.4
2023-03-30T12:01:02.952Z,985.3
2023-03-30T12:03:29.036Z,985.3
2023-03-30T12:05:55.135Z,985.4
2023-03-30T12:08:21.233Z,985.5
2023-03-30T12:10:47.326Z,985.5
2023-03-30T12:13:13.500Z,985.4
2023-03-30T12:15:39.551Z,985.4
2023-03-30T12:18:05.621Z,985.4
2023-03-30T12:20:31.713Z,985.3
2023-03-30T12:22:57.815Z,985.5
2023-03-30T12:25:23.909Z,985.5
2023-03-30T12:27:50.011Z,985.4
2023-03-30T12:30:15.122Z,985.4
2023-03-30T12:32:41.205Z,985.3
2023-03-30T12:35:07.375Z,985.2
2023-03-30T12:37:33.421Z,985.2
2023-03-30T12:39:59.475Z,985.2
2023-03-30T12:42:25.588Z,985.1
2023-03-30T12:44:51.684Z,985
2023-03-30T12:47:17.772Z,985.1
2023-03-30T12:49:43.863Z,984.9
2023-03-30T12:52:09.974Z,984.9
2023-03-30T12:54:36.048Z,984.8
2023-03-30T12:57:02.154Z,984.9
2023-03-30T12:59:28.247Z,984.9
2023-03-30T13:01:53.380Z,984.8
2023-03-30T13:04:19.458Z,984.8
2023-03-30T13:06:45.561Z,984.8
2023-03-30T13:09:11.651Z,984.7
2023-03-30T13:11:37.749Z,984.6
2023-03-30T13:14:03.826Z,984.6
2023-03-30T13:16:29.923Z,984.4
2023-03-30T13:18:56.029Z,984.6
2023-03-30T13:21:22.128Z,984.4
2023-03-30T13:23:48.206Z,984.5
2023-03-30T13:26:14.325Z,984.4
2023-03-30T13:28:40.406Z,984.5
2023-03-30T13:31:06.493Z,984.4
2023-03-30T13:33:31.637Z,984.3
2023-03-30T13:35:57.718Z,984.5
2023-03-30T13:38:23.819Z,984.4
2023-03-30T13:40:49.891Z,984.5
2023-03-30T13:43:15.984Z,984.5
2023-03-30T13:45:42.086Z,984.4
2023-03-30T13:48:08.191Z,984.4
2023-03-30T13:50:34.264Z,984.3
2023-03-30T13:53:00.363Z,984.3
2023-03-30T13:55:26.472Z,984.3
2023-03-30T13:57:52.566Z,984.3
2023-03-30T14:00:18.654Z,984.3
2023-03-30T14:02:44.753Z,984.3
2023-03-30T14:05:09.845Z,984.3
2023-03-30T14:07:35.960Z,984.1
2023-03-30T14:10:02.036Z,984.1
2023-03-30T14:12:28.136Z,984.1
2023-03-30T14:14:54.237Z,984
2023-03-30T14:17:20.362Z,984
2023-03-30T14:19:46.437Z,983.9
2023-03-30T14:22:12.521Z,983.9
2023-03-30T14:24:38.632Z,983.9
2023-03-30T14:27:04.733Z,983.9
2023-03-30T14:29:30.822Z,984
2023-03-30T14:31:56.917Z,984
2023-03-30T14:34:23.021Z,984
2023-03-30T14:36:48.101Z,984
2023-03-30T14:39:14.238Z,984
2023-03-30T14:41:40.382Z,984
2023-03-30T14:44:06.396Z,984
2023-03-30T14:46:32.502Z,984
2023-03-30T14:48:58.619Z,984
2023-03-30T14:51:23.722Z,983.9
2023-03-30T14:53:49.820Z,984
2023-03-30T14:56:16.011Z,984.2
2023-03-30T14:58:42.017Z,984
2023-03-30T15:01:08.112Z,984
2023-03-30T15:03:34.215Z,984
2023-03-30T15:08:26.459Z,984.2
2023-03-30T15:10:52.461Z,984.4
2023-03-30T15:13:18.631Z,984.1
2023-03-30T15:15:44.663Z,984.4
2023-03-30T15:18:10.758Z,984.5
2023-03-30T15:20:36.861Z,984.5
2023-03-30T15:23:01.980Z,984.4
2023-03-30T15:25:28.076Z,984.3
2023-03-30T15:27:54.171Z,984.4
2023-03-30T15:30:20.250Z,984.4
2023-03-30T15:32:46.353Z,984.4
2023-03-30T15:35:12.423Z,984.4
2023-03-30T15:37:38.537Z,984.3
2023-03-30T15:40:04.635Z,984.3
2023-03-30T15:42:30.738Z,984.4
2023-03-30T15:44:56.840Z,984.4
2023-03-30T15:47:22.911Z,984.4
2023-03-30T15:49:49.007Z,984.4
2023-03-30T15:52:15.153Z,984.3
2023-03-30T15:54:40.220Z,984.4
2023-03-30T15:57:06.314Z,984.3
2023-03-30T15:59:32.414Z,984.3
2023-03-30T16:01:58.504Z,984.4
2023-03-30T16:04:24.608Z,984.5
2023-03-30T16:06:50.704Z,984.5
2023-03-30T16:09:16.799Z,984.5
2023-03-30T16:11:42.891Z,984.5
2023-03-30T16:14:08.979Z,984.6
2023-03-30T16:16:35.113Z,984.7
2023-03-30T16:19:01.181Z,984.6
2023-03-30T16:21:27.279Z,984.7
2023-03-30T16:23:53.423Z,984.6
2023-03-30T16:26:18.468Z,984.5
2023-03-30T16:28:44.624Z,984.5
2023-03-30T16:31:10.873Z,984.7
2023-03-30T16:33:36.769Z,984.6
2023-03-30T16:36:02.848Z,984.6
2023-03-30T16:38:28.934Z,984.6
2023-03-30T16:40:55.058Z,984.6
2023-03-30T16:43:21.143Z,984.6
2023-03-30T16:45:47.235Z,984.5
2023-03-30T16:48:13.327Z,984.5
2023-03-30T16:50:39.434Z,984.5
2023-03-30T16:53:05.521Z,984.5
2023-03-30T16:55:31.611Z,984.5
2023-03-30T16:57:56.721Z,984.6
2023-03-30T17:00:22.816Z,984.5
2023-03-30T17:02:48.900Z,984.5
2023-03-30T17:05:15.014Z,984.5
2023-03-30T17:07:41.108Z,984.5
2023-03-30T17:10:07.196Z,984.4
2023-03-30T17:12:33.298Z,984.5
2023-03-30T17:14:59.395Z,984.5
2023-03-30T17:17:25.493Z,984.5
2023-03-30T17:19:51.593Z,984.6
2023-03-30T17:22:17.669Z,984.6
2023-03-30T17:24:43.761Z,984.6
2023-03-30T17:27:09.911Z,984.6
2023-03-30T17:29:34.986Z,984.6
2023-03-30T17:34:27.224Z,984.6
2023-03-30T17:36:53.632Z,984.6
2023-03-30T17:39:19.350Z,984.6
2023-03-30T17:41:45.526Z,984.6
2023-03-30T17:44:11.529Z,984.7
2023-03-30T17:46:37.628Z,984.8
2023-03-30T17:49:03.731Z,984.7
2023-03-30T17:51:29.819Z,984.7
2023-03-30T17:53:55.921Z,984.7
2023-03-30T17:56:21.998Z,984.7
2023-03-30T17:58:48.201Z,984.8
2023-03-30T18:01:14.214Z,984.8
2023-03-30T18:03:39.377Z,984.8
2023-03-30T18:06:05.488Z,984.8
2023-03-30T18:08:31.539Z,984.8
2023-03-30T18:10:57.601Z,984.9
2023-03-30T18:13:23.760Z,984.9
2023-03-30T18:15:49.807Z,985
2023-03-30T18:18:15.938Z,985
2023-03-30T18:20:42.032Z,984.9
2023-03-30T18:23:08.092Z,985
2023-03-30T18:25:34.182Z,985
2023-03-30T18:28:00.299Z,985.1
2023-03-30T18:30:26.393Z,985.1
2023-03-30T18:32:52.468Z,985.1
2023-03-30T18:35:17.575Z,985.1
2023-03-30T18:37:43.669Z,985.2
2023-03-30T18:40:09.755Z,985.1
2023-03-30T18:42:35.868Z,985.2
2023-03-30T18:45:01.971Z,985.1
2023-03-30T18:47:28.086Z,985.1
2023-03-30T18:49:54.291Z,985.1
2023-03-30T18:52:20.285Z,985.1
2023-03-30T18:54:46.415Z,985.1
2023-03-30T18:57:12.422Z,985.1
2023-03-30T18:59:38.544Z,985.1
2023-03-30T19:02:04.637Z,985.1
2023-03-30T19:04:30.725Z,985.1
2023-03-30T19:06:55.841Z,985.1
2023-03-30T19:09:21.923Z,985.1
2023-03-30T19:11:48.061Z,985.2
2023-03-30T19:14:14.142Z,985.2
2023-03-30T19:16:40.215Z,985.2
2023-03-30T19:19:06.348Z,985.3
2023-03-30T19:21:32.502Z,985.4
2023-03-30T19:23:58.517Z,985.2
2023-03-30T19:26:24.606Z,985.3
2023-03-30T19:28:50.734Z,985.3
2023-03-30T19:31:16.804Z,985.4
2023-03-30T19:33:42.900Z,985.3
2023-03-30T19:36:08.995Z,985.3
2023-03-30T19:38:34.108Z,985.3
2023-03-30T19:41:00.175Z,985.3
2023-03-30T19:43:26.297Z,985.3
2023-03-30T19:45:52.391Z,985.3
2023-03-30T19:48:18.495Z,985.3
2023-03-30T19:50:44.593Z,985.3
2023-03-30T19:53:10.691Z,985.2
2023-03-30T19:55:36.759Z,985.1
2023-03-30T19:58:02.868Z,985.1
2023-03-30T20:00:28.996Z,985.2
2023-03-30T20:02:55.057Z,985.2
2023-03-30T20:05:21.152Z,985.1
2023-03-30T20:07:47.253Z,985.1
2023-03-30T20:10:12.358Z,985.1
2023-03-30T20:12:38.514Z,985.1
2023-03-30T20:15:04.543Z,985.1
2023-03-30T20:17:30.638Z,985.1
2023-03-30T20:19:56.763Z,985
2023-03-30T20:22:22.824Z,985
2023-03-30T20:24:48.934Z,985
2023-03-30T20:27:15.027Z,985
2023-03-30T20:29:41.129Z,985.1
2023-03-30T20:32:07.234Z,985.1
2023-03-30T20:34:33.320Z,984.9
2023-03-30T20:36:59.404Z,984.9
2023-03-30T20:39:25.509Z,984.9
2023-03-30T20:41:50.672Z,984.9
2023-03-30T20:44:16.733Z,984.8
2023-03-30T20:46:42.864Z,984.7
2023-03-30T20:49:08.899Z,984.8
2023-03-30T20:51:35.007Z,984.8
2023-03-30T20:54:01.131Z,984.8
2023-03-30T20:56:27.198Z,984.7
2023-03-30T20:58:53.320Z,984.8
2023-03-30T21:01:19.472Z,984.8
2023-03-30T21:03:45.540Z,984.9
2023-03-30T21:06:11.590Z,984.9
2023-03-30T21:08:37.701Z,984.8
2023-03-30T21:11:03.761Z,984.7
2023-03-30T21:13:28.867Z,984.7
2023-03-30T21:15:54.997Z,984.7
2023-03-30T21:18:21.075Z,984.7
2023-03-30T21:20:47.152Z,984.8
2023-03-30T21:23:13.256Z,984.7
2023-03-30T21:25:39.347Z,984.7
2023-03-30T21:28:05.461Z,984.7
2023-03-30T21:30:31.549Z,984.7
2023-03-30T21:32:57.638Z,984.6
2023-03-30T21:35:23.735Z,984.7
2023-03-30T21:37:49.830Z,984.5
2023-03-30T21:40:15.933Z,984.5
2023-03-30T21:42:42.017Z,984.4
2023-03-30T21:45:07.140Z,984.4
2023-03-30T21:47:33.224Z,984.4
2023-03-30T21:49:59.376Z,984.4
2023-03-30T21:52:25.405Z,984.3
2023-03-30T21:54:51.527Z,984.3
2023-03-30T21:57:18.096Z,984.1
2023-03-30T21:59:43.740Z,984.1
2023-03-30T22:02:10.034Z,984.2
2023-03-30T22:04:36.019Z,984.2
2023-03-30T22:07:02.137Z,984.1
2023-03-30T22:09:28.210Z,984.1
2023-03-30T22:11:54.323Z,984
2023-03-30T22:14:20.281Z,984
2023-03-30T22:16:45.420Z,984
2023-03-30T22:19:11.470Z,984
2023-03-30T22:21:37.595Z,984
2023-03-30T22:24:03.658Z,983.9
2023-03-30T22:26:29.840Z,983.9
2023-03-30T22:28:55.881Z,983.9
2023-03-30T22:31:21.984Z,983.9
2023-03-30T22:33:48.057Z,983.9
2023-03-30T22:36:14.159Z,983.8
2023-03-30T22:38:40.259Z,983.7
2023-03-30T22:41:06.385Z,983.7
2023-03-30T22:43:32.436Z,983.6
2023-03-30T22:45:58.588Z,983.6
2023-03-30T22:48:23.656Z,983.6
2023-03-30T22:50:49.790Z,983.6
2023-03-30T22:53:15.857Z,983.6
2023-03-30T22:55:41.933Z,983.5
2023-03-30T22:58:08.259Z,983.4
2023-03-30T23:00:33.222Z,983.4
2023-03-30T23:02:59.247Z,983.4
2023-03-30T23:05:25.366Z,983.4
2023-03-30T23:07:51.498Z,983.3
2023-03-30T23:10:17.550Z,983.3
2023-03-30T23:12:43.669Z,983.2
2023-03-30T23:15:09.701Z,983.2
2023-03-30T23:17:35.811Z,983.1
2023-03-30T23:20:01.896Z,983.1
2023-03-30T23:22:28.003Z,983.2
2023-03-30T23:24:54.268Z,983.1
2023-03-30T23:27:20.190Z,983
2023-03-30T23:29:46.276Z,983.1
2023-03-30T23:32:11.392Z,983.1
2023-03-30T23:34:37.496Z,983
2023-03-30T23:37:03.583Z,983
2023-03-30T23:39:29.757Z,982.9
2023-03-30T23:41:55.890Z,982.8
2023-03-30T23:44:21.890Z,982.8
2023-03-30T23:46:48.016Z,982.8
2023-03-30T23:49:14.115Z,982.7
2023-03-30T23:51:40.159Z,982.7
2023-03-30T23:54:06.259Z,982.7
2023-03-30T23:56:32.348Z,982.6
2023-03-30T23:58:58.497Z,982.6
